Time;durP1;ratioP1;P1;durP2;ratioP2;P2;SDS_P1;SDS_P2;PMS_P1;PMS_P2;Temp;Humidity;BMP_temperature;BMP_pressure;BME280_temperature;BME280_humidity;BME280_pressure;Samples;Min_cycle;Max_cycle;Signal;HPM_P1;HPM_P2
2022/10/03 00:00:25;;;;;;;41.83;23.85;;;;;;;7.86;89.67;93925.95;1698044;84;21433;-58
2022/10/03 00:03:25;;;;;;;41.37;21.15;;;;;;;7.85;89.66;93925.17;1697962;84;20962;-60
2022/10/03 00:06:26;;;;;;;35.98;15.72;;;;;;;7.82;89.71;93919.23;1670716;84;21002;-59
2022/10/03 00:09:17;;;;;;;19.62;11.63;;;;;;;7.77;89.37;93920.42;1698045;84;21146;-59
2022/10/03 00:12:08;;;;;;;15.90;9.40;;;;;;;7.70;90.12;93917.95;1697990;84;20977;-59
2022/10/03 00:15:03;;;;;;;14.75;8.38;;;;;;;7.70;90.71;93909.13;1670067;84;20969;-59
2022/10/03 00:17:57;;;;;;;19.62;12.70;;;;;;;7.72;91.00;93901.23;1695736;84;21477;-60
2022/10/03 00:20:48;;;;;;;17.75;11.40;;;;;;;7.66;91.18;93896.81;1670123;84;20973;-59
2022/10/03 00:24:00;;;;;;;18.02;12.75;;;;;;;7.64;91.63;93901.34;1698177;84;21060;-59
2022/10/03 00:26:43;;;;;;;26.27;19.73;;;;;;;7.55;91.69;93892.33;1697862;83;21206;-59
2022/10/03 00:29:36;;;;;;;35.78;19.92;;;;;;;7.48;92.04;93885.77;1670041;84;20973;-60
2022/10/03 00:32:32;;;;;;;19.00;12.50;;;;;;;7.46;92.76;93881.31;1670486;84;20973;-60
2022/10/03 00:35:26;;;;;;;23.25;12.20;;;;;;;7.48;92.76;93881.04;1697784;84;20941;-58
2022/10/03 00:38:30;;;;;;;22.07;12.90;;;;;;;7.40;92.38;93872.95;1697799;84;21857;-60
2022/10/03 00:41:24;;;;;;;22.07;12.63;;;;;;;7.34;92.40;93872.61;1697879;83;21040;-59
2022/10/03 00:44:30;;;;;;;23.02;13.88;;;;;;;7.26;92.29;93872.69;1697887;84;21434;-59
2022/10/03 00:47:31;;;;;;;20.02;12.82;;;;;;;7.19;92.58;93869.61;1697813;84;21048;-60
2022/10/03 00:50:35;;;;;;;18.92;12.43;;;;;;;7.12;92.50;93861.67;1698133;84;21061;-59
2022/10/03 00:53:20;;;;;;;25.15;14.23;;;;;;;7.04;92.67;93859.64;1697865;83;21162;-59
2022/10/03 00:56:11;;;;;;;25.02;13.75;;;;;;;6.97;92.85;93853.66;1697808;84;20961;-59
2022/10/03 00:59:29;;;;;;;20.55;13.28;;;;;;;7.01;93.42;93847.45;1697258;84;21057;-59
2022/10/03 01:01:57;;;;;;;20.70;12.40;;;;;;;7.08;93.73;93842.49;1697825;83;21162;-60
2022/10/03 01:04:42;;;;;;;22.40;11.83;;;;;;;7.19;93.87;93842.25;1698122;84;21401;-59
2022/10/03 01:07:29;;;;;;;16.62;11.22;;;;;;;7.23;93.32;93836.66;1697033;84;21842;-59
2022/10/03 01:10:24;;;;;;;18.30;11.45;;;;;;;7.27;93.46;93838.66;1697739;84;20985;-59
2022/10/03 01:13:03;;;;;;;26.05;14.28;;;;;;;7.36;93.84;93827.16;1666625;85;21442;-60
2022/10/03 01:16:07;;;;;;;17.05;12.78;;;;;;;7.44;93.80;93836.63;1658971;85;21022;-58
2022/10/03 01:18:56;;;;;;;21.07;13.28;;;;;;;7.47;93.29;93834.95;1697952;84;21071;-58
2022/10/03 01:21:46;;;;;;;22.45;12.73;;;;;;;7.49;93.40;93822.98;1697860;83;21450;-58
2022/10/03 01:24:34;;;;;;;20.95;13.28;;;;;;;7.50;93.09;93823.89;1698258;83;20953;-59
2022/10/03 01:27:06;;;;;;;19.62;13.38;;;;;;;7.51;93.48;93819.94;1698000;84;21004;-59
2022/10/03 01:32:51;;;;;;;19.50;12.03;;;;;;;7.58;93.32;93824.38;1688004;84;20977;-58
2022/10/03 01:35:41;;;;;;;20.37;11.75;;;;;;;7.61;93.42;93818.77;1698091;84;21307;-59
2022/10/03 01:38:26;;;;;;;15.48;10.53;;;;;;;7.65;93.65;93816.66;1697181;84;21536;-59
2022/10/03 01:41:20;;;;;;;16.60;10.60;;;;;;;7.67;93.43;93812.11;1698203;83;20997;-58
2022/10/03 01:43:59;;;;;;;19.35;10.63;;;;;;;7.65;93.10;93822.13;1718348;82;21061;-59
2022/10/03 01:46:38;;;;;;;17.20;9.53;;;;;;;7.59;92.59;93821.20;1700785;84;21001;-58
2022/10/03 01:49:17;;;;;;;12.93;9.70;;;;;;;7.58;93.19;93823.01;1700690;84;21260;-59
2022/10/03 01:52:01;;;;;;;11.43;9.15;;;;;;;7.61;92.96;93817.41;1700531;84;20946;-59
2022/10/03 01:54:40;;;;;;;13.10;9.08;;;;;;;7.66;93.07;93822.28;1700631;84;21004;-58
2022/10/03 01:57:13;;;;;;;13.90;10.10;;;;;;;7.73;92.96;93826.72;1700537;84;21040;-59
2022/10/03 01:59:51;;;;;;;15.50;10.35;;;;;;;7.79;93.12;93822.95;1701115;84;21012;-58
2022/10/03 02:02:33;;;;;;;14.50;8.58;;;;;;;7.87;92.97;93822.81;1700755;84;21657;-57
2022/10/03 02:05:39;;;;;;;16.27;9.00;;;;;;;7.95;92.70;93818.59;1699260;84;21053;-59
2022/10/03 02:08:35;;;;;;;13.72;7.72;;;;;;;8.01;92.46;93812.66;1700658;84;21021;-60
2022/10/03 02:11:07;;;;;;;7.15;5.97;;;;;;;8.07;92.16;93804.61;1667082;86;21002;-58
2022/10/03 02:13:43;;;;;;;6.42;5.70;;;;;;;8.12;91.89;93807.52;1667228;85;20994;-58
2022/10/03 02:16:47;;;;;;;8.85;5.28;;;;;;;8.15;91.87;93805.84;1638663;87;21574;-59
2022/10/03 02:19:29;;;;;;;7.17;6.33;;;;;;;8.19;91.96;93816.06;1638516;86;21025;-58
2022/10/03 02:21:57;;;;;;;10.30;6.20;;;;;;;8.18;91.50;93815.31;1638544;87;20992;-58
2022/10/03 02:24:38;;;;;;;10.75;6.33;;;;;;;8.12;91.81;93813.00;1638699;87;21036;-59
2022/10/03 02:27:45;;;;;;;6.85;6.15;;;;;;;8.15;92.40;93814.05;1638458;86;20984;-58
2022/10/03 02:30:20;;;;;;;6.78;5.45;;;;;;;8.13;92.02;93806.91;1638531;87;21304;-58
2022/10/03 02:33:22;;;;;;;9.50;4.75;;;;;;;8.08;92.14;93813.73;1667179;84;21059;-58
2022/10/03 02:36:15;;;;;;;8.97;4.80;;;;;;;8.06;92.36;93814.05;1638731;86;21088;-59
2022/10/03 02:39:01;;;;;;;9.78;4.53;;;;;;;8.09;92.79;93817.25;1638799;86;20981;-59
2022/10/03 02:41:53;;;;;;;5.33;4.30;;;;;;;8.17;93.54;93820.61;1637884;87;21028;-58
2022/10/03 02:44:56;;;;;;;4.50;4.05;;;;;;;8.28;93.60;93818.83;1638664;87;21256;-59
2022/10/03 02:47:54;;;;;;;;;;;;;;;8.34;93.61;93819.75;1640917;87;20988;-59
2022/10/03 02:50:57;;;;;;;6.17;5.58;;;;;;;8.33;93.39;93819.59;1638490;86;20130;-59
2022/10/03 02:53:50;;;;;;;9.90;7.83;;;;;;;8.40;93.69;93818.69;1638717;86;20982;-59
2022/10/03 02:56:57;;;;;;;13.88;9.90;;;;;;;8.37;93.23;93822.34;1638487;87;21071;-59
2022/10/03 02:59:48;;;;;;;17.52;12.00;;;;;;;8.34;93.15;93827.97;1638484;87;21233;-58
2022/10/03 03:02:47;;;;;;;15.25;10.63;;;;;;;8.25;93.32;93827.34;1638621;87;21017;-59
2022/10/03 03:05:40;;;;;;;14.45;10.85;;;;;;;8.34;93.79;93830.11;1667010;86;21502;-58
2022/10/03 03:08:42;;;;;;;13.90;10.45;;;;;;;8.46;93.70;93833.30;1618594;87;21091;-58
2022/10/03 03:11:36;;;;;;;13.93;10.08;;;;;;;8.53;93.37;93826.17;1665574;85;21039;-58
2022/10/03 03:15:01;;;;;;;14.07;9.53;;;;;;;8.52;93.21;93825.25;1667103;86;21160;-59
2022/10/03 03:18:01;;;;;;;14.65;9.55;;;;;;;8.51;93.45;93820.98;1667010;84;21504;-58
2022/10/03 03:20:57;;;;;;;9.70;8.70;;;;;;;8.56;93.40;93803.33;1666836;86;21068;-58
2022/10/03 03:23:49;;;;;;;9.55;7.80;;;;;;;8.61;93.28;93812.30;1595714;86;21000;-59
2022/10/03 03:27:05;;;;;;;10.10;7.60;;;;;;;8.60;93.01;93809.41;1609354;89;21573;-60
2022/10/03 03:29:54;;;;;;;7.95;6.90;;;;;;;8.58;93.66;93812.48;1666917;84;21337;-58
2022/10/03 03:32:55;;;;;;;13.28;7.70;;;;;;;8.57;93.60;93807.59;1667332;86;21048;-60
2022/10/03 03:35:56;;;;;;;11.33;8.08;;;;;;;8.61;93.85;93806.82;1648766;86;20992;-61
2022/10/03 03:39:01;;;;;;;11.40;7.35;;;;;;;8.70;93.49;93809.58;1667069;84;21083;-58
2022/10/03 03:42:11;;;;;;;17.48;9.35;;;;;;;8.75;93.99;93814.45;1667058;86;21520;-57
2022/10/03 03:45:24;;;;;;;12.40;7.95;;;;;;;8.80;93.64;93813.83;1667005;84;21211;-58
2022/10/03 03:48:07;;;;;;;14.33;8.20;;;;;;;8.82;93.52;93813.38;1667126;86;21128;-58
2022/10/03 03:50:40;;;;;;;9.38;7.08;;;;;;;8.78;93.39;93820.37;1667091;86;21048;-60
2022/10/03 03:53:42;;;;;;;8.35;6.90;;;;;;;8.83;93.59;93814.90;1666910;86;21653;-60
2022/10/03 03:56:35;;;;;;;8.10;7.05;;;;;;;8.87;93.68;93827.25;1667133;86;21035;-60
2022/10/03 03:59:30;;;;;;;8.98;6.90;;;;;;;8.90;93.35;93832.55;1667068;86;21151;-60
2022/10/03 04:02:12;;;;;;;10.45;6.08;;;;;;;8.93;93.60;93835.00;1666777;86;21585;-61
2022/10/03 04:05:01;;;;;;;12.90;5.95;;;;;;;8.99;93.59;93832.56;1666022;86;21068;-61
2022/10/03 04:08:10;;;;;;;12.15;6.87;;;;;;;9.05;93.41;93837.58;1667039;86;21012;-60
2022/10/03 04:11:11;;;;;;;14.45;9.60;;;;;;;9.05;93.38;93836.83;1635375;86;20976;-60
2022/10/03 04:13:59;;;;;;;15.40;10.20;;;;;;;9.04;93.17;93827.83;1667197;86;21276;-60
2022/10/03 04:20:04;;;;;;;17.42;11.57;;;;;;;9.09;93.52;93838.80;1667175;86;21507;-61
2022/10/03 04:23:01;;;;;;;20.48;11.38;;;;;;;9.10;93.37;93823.23;1667097;86;21031;-60
2022/10/03 04:25:45;;;;;;;18.25;11.85;;;;;;;9.13;93.66;93824.31;1667434;86;21134;-59
2022/10/03 04:28:42;;;;;;;18.25;11.53;;;;;;;9.14;93.81;93827.20;1667185;86;21260;-60
2022/10/03 04:31:30;;;;;;;28.65;15.03;;;;;;;9.11;93.37;93838.47;1667077;86;21518;-60
2022/10/03 04:34:29;;;;;;;17.82;11.18;;;;;;;9.07;93.79;93833.02;1667075;86;21064;-64
2022/10/03 04:37:07;;;;;;;15.80;10.15;;;;;;;9.10;93.89;93845.81;1666731;86;21074;-64
2022/10/03 04:39:46;;;;;;;18.70;11.88;;;;;;;9.06;93.47;93846.58;1667092;86;20988;-63
2022/10/03 04:42:54;;;;;;;16.82;10.63;;;;;;;9.00;93.88;93847.02;1667255;86;21907;-63
2022/10/03 04:45:43;;;;;;;14.10;11.35;;;;;;;9.04;94.30;93847.66;1667086;86;21088;-61
2022/10/03 04:48:28;;;;;;;21.37;14.50;;;;;;;9.04;94.17;93846.28;1665475;84;21071;-64
2022/10/03 04:51:33;;;;;;;23.73;14.10;;;;;;;9.03;94.13;93852.99;1667021;84;21040;-64
2022/10/03 04:54:23;;;;;;;25.95;14.93;;;;;;;9.02;94.16;93847.33;1667249;86;21035;-63
2022/10/03 04:56:59;;;;;;;22.22;13.62;;;;;;;9.03;94.66;93844.77;1667045;86;21177;-56
2022/10/03 04:59:33;;;;;;;18.12;12.25;;;;;;;9.04;94.90;93844.28;1641624;86;21201;-62
2022/10/03 05:02:14;;;;;;;24.45;13.58;;;;;;;9.06;94.65;93841.09;1667107;86;21072;-61
2022/10/03 05:04:53;;;;;;;16.40;10.82;;;;;;;9.07;94.95;93843.98;1667306;86;21031;-61
2022/10/03 05:08:04;;;;;;;17.40;12.47;;;;;;;9.18;95.41;93840.14;1667118;86;21095;-61
2022/10/03 05:10:59;;;;;;;19.82;13.88;;;;;;;9.24;95.28;93843.81;1667066;84;21234;-64
2022/10/03 05:13:58;;;;;;;14.83;11.48;;;;;;;9.29;95.55;93843.19;1667188;86;21445;-58
2022/10/03 05:16:56;;;;;;;16.80;11.90;;;;;;;9.43;95.42;93848.05;1667041;86;20998;-58
2022/10/03 05:19:48;;;;;;;13.58;11.00;;;;;;;9.45;95.02;93840.85;1665862;86;21020;-61
2022/10/03 05:22:39;;;;;;;15.48;11.73;;;;;;;9.55;95.48;93859.44;1651523;86;21187;-60
2022/10/03 05:25:57;;;;;;;13.90;11.10;;;;;;;9.53;94.93;93857.17;1644770;87;21185;-60
2022/10/03 05:28:57;;;;;;;13.80;10.18;;;;;;;9.53;94.97;93850.30;1645044;87;21018;-60
2022/10/03 05:32:15;;;;;;;14.43;9.63;;;;;;;9.55;95.01;93850.60;1635237;87;21018;-61
2022/10/03 05:35:17;;;;;;;12.58;10.45;;;;;;;9.64;94.81;93856.68;1556916;91;22229;-61
2022/10/03 05:38:05;;;;;;;13.50;10.60;;;;;;;9.65;94.45;93854.08;1558608;90;21183;-59
2022/10/03 05:40:35;;;;;;;14.07;9.93;;;;;;;9.65;94.64;93852.70;1631970;85;21442;-61
2022/10/03 05:43:44;;;;;;;11.73;9.95;;;;;;;9.69;94.51;93858.80;1644548;85;21508;-60
2022/10/03 05:46:23;;;;;;;10.05;8.48;;;;;;;9.71;94.52;93857.72;1677668;84;22122;-60
2022/10/03 05:49:00;;;;;;;12.28;9.88;;;;;;;9.86;94.67;93861.33;1694115;84;21138;-60
2022/10/03 05:51:52;;;;;;;20.48;13.88;;;;;;;9.94;94.53;93865.25;1659139;85;20984;-61
2022/10/03 05:54:59;;;;;;;38.85;24.82;;;;;;;10.08;94.77;93865.40;1646197;85;22916;-60
2022/10/03 05:57:47;;;;;;;38.67;26.80;;;;;;;10.18;94.27;93863.37;1673934;84;21606;-60
2022/10/03 06:00:32;;;;;;;24.55;16.75;;;;;;;10.30;94.26;93855.50;1677711;84;20990;-59
2022/10/03 06:03:17;;;;;;;23.75;19.25;;;;;;;10.41;93.76;93855.76;1665782;83;21529;-59
2022/10/03 06:06:09;;;;;;;22.35;15.03;;;;;;;10.48;93.37;93854.80;1679141;83;21077;-60
2022/10/03 06:08:50;;;;;;;19.10;13.78;;;;;;;10.55;93.00;93853.69;1670539;84;21095;-59
2022/10/03 06:11:58;;;;;;;13.55;9.95;;;;;;;10.61;92.56;93847.08;1675521;84;20986;-60
2022/10/03 06:15:02;;;;;;;19.77;14.18;;;;;;;10.68;91.59;93848.72;1649754;84;21028;-59
2022/10/03 06:18:05;;;;;;;11.55;9.00;;;;;;;10.79;91.92;93853.20;1672155;83;21587;-62
2022/10/03 06:21:14;;;;;;;10.03;6.08;;;;;;;10.99;91.56;93853.35;1665598;84;21554;-60
2022/10/03 06:24:05;;;;;;;10.72;6.62;;;;;;;11.11;90.12;93852.34;1638912;85;22160;-57
2022/10/03 06:26:50;;;;;;;7.25;5.33;;;;;;;11.15;89.32;93858.42;1677056;83;20961;-62
2022/10/03 06:29:43;;;;;;;5.60;4.70;;;;;;;11.24;88.11;93852.85;1677365;83;20986;-61
2022/10/03 06:32:36;;;;;;;5.30;4.80;;;;;;;11.26;86.48;93853.13;1675129;84;21529;-60
2022/10/03 06:35:30;;;;;;;5.67;4.70;;;;;;;11.22;85.40;93857.30;1678425;83;21285;-63
2022/10/03 06:38:35;;;;;;;4.65;3.62;;;;;;;11.24;85.39;93855.60;1686687;83;21245;-61
2022/10/03 06:41:47;;;;;;;3.65;3.30;;;;;;;11.34;84.71;93869.42;1652647;83;21025;-60
2022/10/03 06:44:53;;;;;;;3.47;2.90;;;;;;;11.44;82.92;93866.73;1664727;83;26495;-63
2022/10/03 06:47:57;;;;;;;3.85;3.45;;;;;;;11.49;81.85;93868.08;1625666;85;22380;-60
2022/10/03 06:50:42;;;;;;;3.17;2.80;;;;;;;11.58;81.15;93871.53;1598998;87;21115;-61
2022/10/03 06:53:47;;;;;;;2.70;2.50;;;;;;;11.64;79.28;93864.11;1618129;87;22016;-63
2022/10/03 06:56:49;;;;;;;2.70;2.50;;;;;;;11.70;78.70;93865.59;1607207;87;21074;-60
2022/10/03 06:59:49;;;;;;;2.62;2.42;;;;;;;11.78;77.51;93866.11;1572711;87;21063;-60
2022/10/03 07:02:56;;;;;;;5.00;2.70;;;;;;;11.85;73.88;93867.09;1593666;87;21071;-60
2022/10/03 07:05:56;;;;;;;3.95;3.65;;;;;;;11.96;74.99;93874.18;1532246;91;21561;-60
2022/10/03 07:08:50;;;;;;;4.20;2.95;;;;;;;12.15;74.79;93877.47;1614007;87;21242;-60
2022/10/03 07:11:38;;;;;;;4.00;3.10;;;;;;;12.36;71.34;93873.53;1645151;85;21294;-60
2022/10/03 07:14:37;;;;;;;3.47;3.17;;;;;;;12.46;68.63;93871.55;1655062;85;21889;-58
2022/10/03 07:17:42;;;;;;;2.87;2.47;;;;;;;12.55;68.05;93868.69;1645755;85;21075;-61
2022/10/03 07:20:24;;;;;;;;;;;;;;;12.64;67.01;93870.70;1591742;88;21099;-60
2022/10/03 07:23:42;;;;;;;3.08;2.33;;;;;;;12.69;66.31;93858.97;1639120;85;22440;-63
2022/10/03 07:26:26;;;;;;;3.42;2.90;;;;;;;12.72;64.03;93851.73;1643309;85;21099;-60
2022/10/03 07:29:17;;;;;;;2.65;2.45;;;;;;;12.78;62.46;93854.71;1645883;85;21140;-60
2022/10/03 07:32:13;;;;;;;3.37;3.08;;;;;;;12.76;62.30;93858.58;1643080;85;21184;-60
2022/10/03 07:38:58;;;;;;;4.50;4.10;;;;;;;12.90;62.17;93858.37;1638586;85;21277;-63
2022/10/03 07:41:51;;;;;;;4.75;4.25;;;;;;;13.08;62.63;93842.94;1636813;85;21123;-63
2022/10/03 07:45:07;;;;;;;2.90;2.70;;;;;;;13.19;63.05;93849.34;1651054;84;21625;-60
2022/10/03 07:48:04;;;;;;;3.25;2.95;;;;;;;13.37;60.83;93837.21;1654922;85;21620;-62
2022/10/03 07:50:51;;;;;;;5.67;5.05;;;;;;;13.52;60.13;93833.12;1643783;85;21091;-64
2022/10/03 07:53:42;;;;;;;4.70;4.30;;;;;;;13.70;57.00;93840.31;1635389;85;21617;-62
2022/10/03 07:56:54;;;;;;;6.17;2.95;;;;;;;13.86;57.10;93835.56;1641381;85;21080;-64
2022/10/03 08:00:11;;;;;;;4.65;3.80;;;;;;;14.02;56.37;93832.17;1638151;85;22188;-63
2022/10/03 08:03:06;;;;;;;7.05;3.60;;;;;;;14.14;56.25;93826.87;1643206;85;21068;-60
2022/10/03 08:06:17;;;;;;;4.75;3.50;;;;;;;14.30;55.31;93832.55;1621291;85;22166;-61
2022/10/03 08:09:23;;;;;;;8.40;3.75;;;;;;;14.36;55.10;93827.80;1642707;85;21234;-61
2022/10/03 08:12:20;;;;;;;7.03;6.33;;;;;;;14.51;54.97;93836.09;1636607;85;22096;-66
2022/10/03 08:15:03;;;;;;;2.62;2.37;;;;;;;14.66;52.01;93832.51;1639929;85;21105;-61
2022/10/03 08:17:57;;;;;;;4.67;2.20;;;;;;;14.77;50.72;93829.81;1609914;86;21086;-61
2022/10/03 08:20:51;;;;;;;6.03;2.22;;;;;;;14.87;50.13;93827.59;1625858;85;21703;-59
2022/10/03 08:24:08;;;;;;;7.75;1.90;;;;;;;15.03;50.69;93819.34;1592554;88;21179;-60
2022/10/03 08:26:44;;;;;;;4.70;3.70;;;;;;;15.16;49.88;93831.38;1641444;85;21068;-63
2022/10/03 08:29:29;;;;;;;8.25;2.08;;;;;;;15.31;50.40;93827.17;1650555;85;21076;-63
2022/10/03 08:32:31;;;;;;;5.50;1.65;;;;;;;15.50;49.77;93819.14;1638632;85;21068;-62
2022/10/03 08:35:38;;;;;;;3.20;1.92;;;;;;;15.61;50.06;93824.11;1648810;85;21511;-61
2022/10/03 08:38:42;;;;;;;2.30;2.10;;;;;;;15.68;49.70;93833.30;1645218;85;21628;-62
2022/10/03 08:41:43;;;;;;;2.72;2.20;;;;;;;15.42;48.70;93823.05;1642953;85;21104;-61
2022/10/03 08:44:34;;;;;;;5.15;2.83;;;;;;;15.24;50.42;93837.94;1639252;85;21593;-58
2022/10/03 08:47:39;;;;;;;11.18;2.25;;;;;;;15.17;49.53;93832.25;1640669;85;21146;-61
2022/10/03 08:50:34;;;;;;;3.12;2.77;;;;;;;15.14;50.53;93833.25;1636879;85;21229;-62
2022/10/03 08:53:47;;;;;;;2.60;1.65;;;;;;;15.14;51.00;93826.32;1628167;85;21186;-66
2022/10/03 08:56:39;;;;;;;3.85;2.12;;;;;;;15.36;50.44;93830.58;1616409;85;21061;-60
2022/10/03 08:59:20;;;;;;;1.80;1.67;;;;;;;15.62;50.54;93825.62;1640452;86;21061;-61
2022/10/03 09:02:27;;;;;;;3.33;2.77;;;;;;;15.64;49.34;93814.78;1638174;85;21620;-61
2022/10/03 09:05:32;;;;;;;6.05;5.00;;;;;;;15.55;49.38;93806.68;1638280;85;21061;-57
2022/10/03 09:08:30;;;;;;;2.35;2.08;;;;;;;15.50;50.80;93815.75;1649667;85;21575;-64
2022/10/03 09:11:22;;;;;;;5.25;2.92;;;;;;;15.52;50.61;93820.16;1644988;85;21096;-61
2022/10/03 09:14:26;;;;;;;15.32;12.10;;;;;;;15.53;51.09;93817.52;1636586;85;21568;-62
2022/10/03 09:17:19;;;;;;;;;;;;;;;15.56;49.57;93820.67;1642645;85;21001;-61
2022/10/03 09:20:31;;;;;;;12.15;10.82;;;;;;;15.50;49.00;93812.98;1640554;85;20582;-61
2022/10/03 09:23:23;;;;;;;8.60;2.42;;;;;;;15.33;48.90;93826.03;1641645;85;21187;-58
2022/10/03 09:26:34;;;;;;;3.37;3.00;;;;;;;15.14;49.80;93823.55;1627840;85;21079;-61
2022/10/03 09:29:22;;;;;;;5.67;3.95;;;;;;;14.98;50.83;93829.78;1619453;85;21068;-61
2022/10/03 09:32:19;;;;;;;8.98;7.85;;;;;;;14.80;51.49;93830.20;1627686;85;21104;-60
2022/10/03 09:35:31;;;;;;;8.85;5.58;;;;;;;14.72;52.20;93827.78;1642382;85;21569;-58
2022/10/03 09:38:48;;;;;;;2.75;2.55;;;;;;;14.63;53.19;93837.66;1637896;85;21382;-60
2022/10/03 09:41:58;;;;;;;3.37;2.92;;;;;;;14.46;52.87;93835.41;1640003;85;21131;-61
2022/10/03 09:44:48;;;;;;;4.15;1.70;;;;;;;14.38;53.92;93846.05;1646868;84;21075;-60
2022/10/03 09:47:32;;;;;;;2.85;2.47;;;;;;;14.35;53.63;93842.88;1641009;84;21020;-61
2022/10/03 09:50:26;;;;;;;3.80;3.47;;;;;;;14.42;54.53;93843.83;1657718;85;21100;-61
2022/10/03 09:53:36;;;;;;;1.80;1.70;;;;;;;14.65;53.85;93844.09;1637039;85;22380;-60
2022/10/03 09:56:29;;;;;;;1.55;1.45;;;;;;;15.17;51.88;93837.79;1625504;85;22047;-60
2022/10/03 09:59:17;;;;;;;2.30;1.50;;;;;;;15.79;50.86;93827.78;1640668;85;21056;-61
2022/10/03 10:01:53;;;;;;;7.47;1.70;;;;;;;16.15;49.55;93826.80;1640440;85;21578;-60
2022/10/03 10:04:43;;;;;;;1.90;1.70;;;;;;;16.18;49.67;93824.40;1642113;85;21381;-63
2022/10/03 10:07:36;;;;;;;2.52;1.92;;;;;;;16.06;49.21;93820.75;1641938;85;21279;-64
2022/10/03 10:10:49;;;;;;;4.83;2.62;;;;;;;15.86;50.42;93824.51;1640180;85;22149;-61
2022/10/03 10:13:32;;;;;;;6.12;5.03;;;;;;;15.60;50.67;93825.36;1641173;85;21085;-64
2022/10/03 10:16:24;;;;;;;2.58;1.90;;;;;;;15.38;52.99;93836.38;1640508;85;21116;-61
2022/10/03 10:19:36;;;;;;;2.27;2.02;;;;;;;15.25;52.74;93838.84;1624940;87;21095;-62
2022/10/03 10:22:34;;;;;;;4.28;2.35;;;;;;;15.17;54.42;93834.28;1626651;86;21254;-61
2022/10/03 10:25:36;;;;;;;2.90;1.80;;;;;;;15.25;54.85;93831.91;1640071;85;21104;-63
2022/10/03 10:28:24;;;;;;;4.55;3.08;;;;;;;15.31;54.78;93831.33;1641572;87;21057;-63
2022/10/03 10:31:31;;;;;;;5.35;2.70;;;;;;;15.30;54.97;93832.58;1636927;85;21033;-57
2022/10/03 10:34:22;;;;;;;4.00;2.15;;;;;;;15.25;54.53;93831.91;1659807;86;21064;-62
2022/10/03 10:37:24;;;;;;;2.55;1.67;;;;;;;15.23;53.41;93819.19;1639836;85;21176;-64
2022/10/03 10:40:36;;;;;;;13.00;2.17;;;;;;;15.14;54.33;93819.39;1636240;85;21118;-63
2022/10/03 10:43:38;;;;;;;2.52;2.15;;;;;;;15.00;54.73;93817.58;1633793;85;21181;-61
2022/10/03 10:46:35;;;;;;;3.37;3.02;;;;;;;14.99;57.26;93818.09;1645308;85;21565;-58
2022/10/03 10:49:37;;;;;;;4.72;2.67;;;;;;;15.08;57.89;93821.40;1648817;85;21130;-61
2022/10/03 10:52:52;;;;;;;1.40;1.30;;;;;;;15.13;55.38;93814.34;1619160;87;21757;-63
2022/10/03 10:55:51;;;;;;;3.58;2.80;;;;;;;15.07;53.68;93816.34;1618993;88;21107;-61
2022/10/03 10:59:04;;;;;;;3.40;2.92;;;;;;;14.97;54.47;93824.11;1611366;88;21058;-63
2022/10/03 11:02:09;;;;;;;5.83;4.62;;;;;;;15.16;53.78;93816.14;1617900;87;21097;-63
2022/10/03 11:05:17;;;;;;;3.10;2.83;;;;;;;15.39;54.60;93819.87;1608566;87;21071;-67
2022/10/03 11:08:22;;;;;;;2.10;1.90;;;;;;;15.39;53.61;93815.72;1548684;91;21158;-61
2022/10/03 11:11:43;;;;;;;2.75;2.55;;;;;;;15.25;54.04;93822.22;1617705;88;21064;-65
2022/10/03 11:14:36;;;;;;;1.50;1.40;;;;;;;15.06;53.71;93823.91;1618993;88;21063;-64
2022/10/03 11:17:41;;;;;;;2.83;1.47;;;;;;;15.04;54.11;93822.24;1616806;88;21036;-62
2022/10/03 11:20:39;;;;;;;2.47;2.22;;;;;;;15.15;54.18;93818.14;1616187;88;21183;-61
2022/10/03 11:23:47;;;;;;;2.90;1.00;;;;;;;15.22;53.61;93812.11;1615628;87;21843;-64
2022/10/03 11:26:58;;;;;;;2.40;1.42;;;;;;;15.25;51.94;93801.44;1623056;87;21596;-61
2022/10/03 11:30:05;;;;;;;1.60;1.50;;;;;;;15.21;51.89;93801.54;1613221;88;21087;-62
2022/10/03 11:33:28;;;;;;;3.45;1.32;;;;;;;15.19;51.22;93804.80;1615482;87;21143;-64
2022/10/03 11:36:26;;;;;;;4.58;1.40;;;;;;;15.04;50.62;93797.95;1616584;88;21074;-64
2022/10/03 11:39:08;;;;;;;1.62;1.52;;;;;;;14.85;51.30;93796.87;1599666;88;21877;-63
2022/10/03 11:41:48;;;;;;;3.22;2.33;;;;;;;14.97;51.09;93792.26;1616796;87;21630;-63
2022/10/03 11:44:29;;;;;;;2.12;1.52;;;;;;;14.94;51.09;93801.56;1572045;90;21088;-62
2022/10/03 11:47:29;;;;;;;6.70;5.12;;;;;;;14.86;51.81;93803.31;1630275;86;21090;-61
2022/10/03 11:50:37;;;;;;;4.55;3.50;;;;;;;14.84;52.37;93812.72;1634093;86;21047;-65
2022/10/03 11:53:28;;;;;;;2.33;1.40;;;;;;;14.78;51.50;93809.17;1627138;87;21281;-64
2022/10/03 11:56:06;;;;;;;1.80;1.45;;;;;;;14.76;51.02;93815.06;1620331;87;21032;-65
2022/10/03 11:59:17;;;;;;;2.10;1.90;;;;;;;14.70;51.17;93808.14;1627847;85;21424;-59
2022/10/03 12:02:09;;;;;;;2.00;1.72;;;;;;;14.65;52.39;93813.00;1626719;86;21030;-60
2022/10/03 12:04:53;;;;;;;2.42;2.22;;;;;;;14.70;52.86;93810.13;1626370;86;21175;-62
2022/10/03 12:10:56;;;;;;;5.90;5.25;;;;;;;14.70;52.63;93806.75;1632978;86;21138;-59
2022/10/03 12:13:58;;;;;;;5.90;3.60;;;;;;;14.67;52.77;93810.48;1616702;87;21090;-61
2022/10/03 12:16:37;;;;;;;11.88;5.65;;;;;;;14.63;52.46;93809.23;1614353;87;21113;-57
2022/10/03 12:19:29;;;;;;;3.75;3.08;;;;;;;14.51;53.38;93815.34;1616889;88;21153;-62
2022/10/03 12:21:59;;;;;;;5.83;4.08;;;;;;;14.43;53.91;93812.87;1576534;87;21367;-63
2022/10/03 12:24:35;;;;;;;12.65;7.85;;;;;;;14.32;54.23;93825.89;1620191;87;21524;-65
2022/10/03 12:27:08;;;;;;;7.78;4.80;;;;;;;14.24;54.99;93829.59;1638436;86;21075;-62
2022/10/03 12:29:39;;;;;;;9.03;7.12;;;;;;;14.12;55.84;93821.82;1619536;87;21552;-60
2022/10/03 12:32:33;;;;;;;4.85;3.20;;;;;;;14.02;56.70;93821.11;1632544;86;21079;-59
2022/10/03 12:35:23;;;;;;;3.00;2.70;;;;;;;14.30;57.38;93828.39;1630119;86;21184;-59
2022/10/03 12:38:17;;;;;;;1.80;1.70;;;;;;;15.12;55.42;93821.91;1627844;86;21441;-59
2022/10/03 12:40:50;;;;;;;1.40;1.30;;;;;;;15.94;53.92;93828.92;1630057;86;21474;-60
2022/10/03 12:43:36;;;;;;;3.45;2.40;;;;;;;16.23;51.40;93823.63;1630982;86;21037;-58
2022/10/03 12:46:11;;;;;;;1.85;1.60;;;;;;;16.17;51.65;93823.50;1633745;86;21197;-59
2022/10/03 12:49:26;;;;;;;2.58;1.52;;;;;;;16.17;51.42;93829.83;1635642;86;21227;-60
2022/10/03 12:51:58;;;;;;;1.90;1.32;;;;;;;16.28;51.88;93823.64;1626741;86;21064;-62
2022/10/03 12:55:04;;;;;;;;;;;;;;;;;;;;;
2022/10/03 12:57:55;;;;;;;1.42;1.32;;;;;;;16.36;50.70;93821.14;1593790;87;21187;-57
2022/10/03 13:01:01;;;;;;;1.12;1.02;;;;;;;16.08;50.65;93809.25;1616615;87;21583;-59
2022/10/03 13:03:54;;;;;;;4.53;3.40;;;;;;;15.74;51.12;93810.48;1621958;87;21284;-59
2022/10/03 13:06:44;;;;;;;2.55;2.08;;;;;;;15.43;52.13;93822.41;1607188;87;21558;-61
2022/10/03 13:09:40;;;;;;;3.25;1.40;;;;;;;15.25;52.56;93823.60;1633944;86;21828;-63
2022/10/03 13:12:22;;;;;;;2.77;2.00;;;;;;;15.05;53.49;93819.63;1617489;87;21166;-62
2022/10/03 13:15:43;;;;;;;3.33;1.45;;;;;;;15.02;53.82;93817.09;1613339;87;21593;-60
2022/10/03 13:18:30;;;;;;;2.62;1.55;;;;;;;14.94;53.80;93821.56;1627881;86;21242;-57
2022/10/03 13:21:26;;;;;;;3.52;2.92;;;;;;;14.92;53.83;93821.31;1606539;86;21133;-59
2022/10/03 13:24:19;;;;;;;2.00;1.55;;;;;;;14.88;53.38;93820.80;1624442;86;21548;-59
2022/10/03 13:27:07;;;;;;;2.40;1.35;;;;;;;14.82;53.64;93818.64;1636454;86;21063;-58
2022/10/03 13:29:52;;;;;;;5.67;1.40;;;;;;;15.03;53.48;93819.98;1597330;87;21065;-65
2022/10/03 13:32:33;;;;;;;2.40;2.17;;;;;;;15.11;53.12;93812.70;1631855;86;21094;-63
2022/10/03 13:38:15;;;;;;;7.95;2.87;;;;;;;15.45;52.50;93819.27;1601194;87;43039;-63
2022/10/03 13:40:58;;;;;;;2.92;1.22;;;;;;;15.97;51.82;93816.82;1623333;87;21145;-62
2022/10/03 13:43:35;;;;;;;3.05;2.45;;;;;;;16.18;50.42;93818.08;1631821;87;21067;-59
2022/10/03 13:46:02;;;;;;;1.47;1.37;;;;;;;16.48;50.58;93817.06;1625719;86;21334;-61
2022/10/03 13:48:32;;;;;;;5.28;3.90;;;;;;;16.73;49.37;93825.75;1631971;87;21040;-59
2022/10/03 13:51:20;;;;;;;1.57;1.47;;;;;;;16.69;49.63;93816.92;1611958;87;21084;-60
2022/10/03 13:54:05;;;;;;;3.67;2.08;;;;;;;16.55;49.34;93816.57;1620685;87;21192;-59
2022/10/03 13:56:54;;;;;;;2.83;1.98;;;;;;;16.57;48.33;93818.20;1609636;87;21083;-59